Portada
METAR-TAF:

METAR-TAF

Aeroports :

Figari, França

latitud: 41-30N, longitud: 009-06E, altitud: 26 m

Observació

L'informe es va fer fa 42 minuts, a les 22:00 UTC
Vent 4 kt del Est/Nord-Est
Temperatura 22°C
Humitat 83%
Pressió 1019 hPa
Visibilitat 10 km o més
sense núvols per sota de 1500 mi sense presència de cumulonimbus.

METAR: LFKF 202200Z AUTO 07004KT CAVOK 22/19 Q1019

Hora: 00:42 (22:42 UTC)

Pronòstic

L'informe es va fer fa 8 hores i 42 minuts, a les 14:00 UTC
Pronòstic vàlid del 20 a les 15 UTC al 21 a les 15 UTC
Vent 10 kt del Est/Nord-Est
Visibilitat 10 km o més
sense núvols per sota de 1500 mi sense presència de cumulonimbus.
Probabilitat 30% :
Temporalment
l' 21 a les 00 UTC al 21 a les 05 UTC
Cel ennuvolat a una alçada de 700 ft
Temporalment
l' 21 a les 13 UTC al 21 a les 15 UTC
Vent 8 kt del Sud-Oest

TAF: LFKF 201400Z 2015/2115 06010KT CAVOK PROB30 TEMPO 2100/2105 BKN007 TEMPO 2113/2115 23008KT

Observacions i pronòstics meteorològics de més de 4000 aeroports (METAR i TAF).

Les estacions disponibles són els punts grocs i vermells al mapa.

Posi el ratolí al punt desitjat per veure el nom de l'estació.

Feu clic per veure les observacions i els pronòstics meteorològics.

Per canviar el mapa: feu clic els botons verds amb una creu de color negre per apropar; al botó verd amb un guió per allunyar la imatge; o en les fletxes verdes per a mapes adjacents.


METAR-TAF: